Time;durP1;ratioP1;P1;durP2;ratioP2;P2;SDS_P1;SDS_P2;PMS_P1;PMS_P2;Temp;Humidity;BMP_temperature;BMP_pressure;BME280_temperature;BME280_humidity;BME280_pressure;Samples;Min_cycle;Max_cycle;Signal;HPM_P1;HPM_P2
2021/11/02 00:02:02;;;;;;;2.53;2.20;;;24.70;98.30;;;;;;5076989;28;20143;-75
2021/11/02 00:04:30;;;;;;;4.05;2.28;;;24.60;99.20;;;;;;5077488;28;20025;-75
2021/11/02 00:06:57;;;;;;;3.58;2.35;;;24.70;97.90;;;;;;5077542;28;20078;-76
2021/11/02 00:09:28;;;;;;;3.15;2.60;;;24.70;98.20;;;;;;5075922;28;20032;-77
2021/11/02 00:11:55;;;;;;;4.75;2.60;;;24.80;98.30;;;;;;5074232;28;20036;-75
2021/11/02 00:14:26;;;;;;;5.72;2.42;;;25.00;98.20;;;;;;5072083;28;20028;-75
2021/11/02 00:16:59;;;;;;;4.45;2.60;;;25.00;98.00;;;;;;5071740;28;20409;-76
2021/11/02 00:19:28;;;;;;;2.80;2.15;;;25.10;98.50;;;;;;5072063;28;20497;-76
2021/11/02 00:21:57;;;;;;;2.55;2.33;;;25.30;98.00;;;;;;5071998;28;20027;-77
2021/11/02 00:27:01;;;;;;;3.00;2.53;;;25.20;98.40;;;;;;5073690;28;20493;-77
2021/11/02 00:29:28;;;;;;;2.30;2.10;;;24.80;97.90;;;;;;5073295;28;20100;-79
2021/11/02 00:31:56;;;;;;;5.25;2.38;;;24.60;98.40;;;;;;5073672;28;20044;-77
2021/11/02 00:34:23;;;;;;;3.35;2.40;;;24.60;97.80;;;;;;5072014;28;20020;-78
2021/11/02 00:36:51;;;;;;;3.95;2.63;;;25.00;99.00;;;;;;5073472;28;20028;-78
2021/11/02 00:39:18;;;;;;;9.85;2.92;;;25.10;97.30;;;;;;5071993;28;20063;-78
2021/11/02 00:41:45;;;;;;;2.30;2.10;;;25.30;97.00;;;;;;5072217;28;20493;-78
2021/11/02 00:44:13;;;;;;;3.42;1.95;;;25.50;97.00;;;;;;5073003;28;20020;-78
2021/11/02 00:46:40;;;;;;;2.65;2.00;;;25.80;97.60;;;;;;5073256;28;20025;-78
2021/11/02 00:49:15;;;;;;;3.67;2.00;;;26.00;97.40;;;;;;5075527;28;20032;-78
2021/11/02 00:51:43;;;;;;;2.47;2.15;;;26.10;96.60;;;;;;5075295;28;20059;-79
2021/11/02 00:54:12;;;;;;;4.22;3.20;;;26.10;95.70;;;;;;5077125;28;20017;-78
2021/11/02 00:56:40;;;;;;;3.17;2.90;;;26.30;96.10;;;;;;5076882;28;20542;-78
2021/11/02 00:59:08;;;;;;;4.10;2.40;;;26.50;95.60;;;;;;5075396;28;20554;-78
2021/11/02 01:01:37;;;;;;;5.13;2.50;;;26.60;95.90;;;;;;5075803;28;20032;-78
2021/11/02 01:04:05;;;;;;;2.75;2.40;;;26.40;95.40;;;;;;5075470;28;20557;-78
2021/11/02 01:06:34;;;;;;;3.35;2.63;;;26.10;94.80;;;;;;5075667;28;20032;-77
2021/11/02 01:09:03;;;;;;;3.83;2.50;;;26.10;95.60;;;;;;5076856;28;20020;-77
2021/11/02 01:11:30;;;;;;;3.20;2.33;;;26.10;95.40;;;;;;5076429;28;20444;-77
2021/11/02 01:13:58;;;;;;;3.42;2.60;;;26.10;95.90;;;;;;5076556;28;20099;-77
2021/11/02 01:16:27;;;;;;;2.50;2.30;;;26.50;95.70;;;;;;5075296;28;20031;-78
2021/11/02 01:18:55;;;;;;;2.63;2.42;;;26.30;95.90;;;;;;5075075;28;20493;-78
2021/11/02 01:21:23;;;;;;;4.80;2.90;;;26.60;95.40;;;;;;5076199;28;20082;-78
2021/11/02 01:23:51;;;;;;;3.70;2.58;;;26.40;95.50;;;;;;5076764;28;20405;-77
2021/11/02 01:26:19;;;;;;;3.03;2.30;;;26.40;95.30;;;;;;5076662;28;20044;-77
2021/11/02 01:28:46;;;;;;;3.00;2.38;;;26.30;95.20;;;;;;5076365;28;20077;-77
2021/11/02 01:31:13;;;;;;;2.28;2.17;;;26.10;94.60;;;;;;5076229;28;20024;-78
2021/11/02 01:33:41;;;;;;;2.55;2.35;;;26.00;95.30;;;;;;5076600;28;20046;-78
2021/11/02 01:36:09;;;;;;;2.72;2.60;;;26.00;94.60;;;;;;5075152;28;20166;-78
2021/11/02 01:38:37;;;;;;;3.53;2.50;;;25.90;94.60;;;;;;5076115;28;20048;-78
2021/11/02 01:41:06;;;;;;;5.05;2.53;;;26.00;95.60;;;;;;5074784;28;20032;-78
2021/11/02 01:43:34;;;;;;;3.38;2.47;;;26.20;95.80;;;;;;5074709;28;20028;-78
2021/11/02 01:46:04;;;;;;;3.13;2.25;;;26.50;95.00;;;;;;5076189;28;20020;-77
2021/11/02 01:48:32;;;;;;;4.32;2.58;;;26.20;95.10;;;;;;5075995;28;20017;-78
2021/11/02 01:51:01;;;;;;;2.60;2.40;;;25.50;95.60;;;;;;5074539;28;20024;-77
2021/11/02 01:53:28;;;;;;;2.80;2.50;;;25.60;95.80;;;;;;5074309;28;20063;-76
2021/11/02 01:55:56;;;;;;;4.03;2.83;;;25.80;95.60;;;;;;5075713;28;20013;-77
2021/11/02 01:58:24;;;;;;;4.82;2.40;;;26.10;95.50;;;;;;5075974;28;20025;-77
2021/11/02 02:00:59;;;;;;;2.70;2.50;;;26.20;95.30;;;;;;5073898;28;20035;-79
2021/11/02 02:04:08;;;;;;;2.95;2.17;;;26.50;94.60;;;;;;5075671;28;20024;-77
2021/11/02 02:06:42;;;;;;;2.20;2.00;;;26.50;94.70;;;;;;5033199;28;20398;-77
2021/11/02 02:09:31;;;;;;;2.13;1.70;;;26.50;94.60;;;;;;5065023;28;20124;-78
2021/11/02 02:12:10;;;;;;;3.53;2.10;;;26.60;94.50;;;;;;5075269;28;20025;-78
2021/11/02 02:15:04;;;;;;;2.97;2.40;;;26.70;95.40;;;;;;5075505;28;20021;-77
2021/11/02 02:17:45;;;;;;;3.25;2.30;;;25.90;94.80;;;;;;5075146;28;20060;-78
2021/11/02 02:20:39;;;;;;;4.68;2.63;;;25.90;95.10;;;;;;5073682;28;20119;-78
2021/11/02 02:23:27;;;;;;;4.25;2.50;;;26.50;94.90;;;;;;5073741;28;20025;-77
2021/11/02 02:26:20;;;;;;;2.40;2.30;;;26.30;95.20;;;;;;5075206;28;20021;-78
2021/11/02 02:28:52;;;;;;;2.70;2.50;;;25.80;93.60;;;;;;5075164;28;20103;-79
2021/11/02 02:31:21;;;;;;;2.90;2.70;;;26.00;94.00;;;;;;5074705;28;20032;-78
2021/11/02 02:33:51;;;;;;;3.08;2.45;;;26.20;92.90;;;;;;5074663;28;20108;-77
2021/11/02 02:36:19;;;;;;;2.40;2.17;;;26.20;91.90;;;;;;5074594;28;20389;-78
2021/11/02 02:38:48;;;;;;;2.17;2.00;;;26.40;91.40;;;;;;5074390;28;20359;-78
2021/11/02 02:41:20;;;;;;;2.80;2.20;;;26.70;92.80;;;;;;5073143;28;20028;-78
2021/11/02 02:43:48;;;;;;;4.22;2.10;;;27.00;91.40;;;;;;5073019;28;20070;-78
2021/11/02 02:46:16;;;;;;;3.00;2.20;;;27.10;91.80;;;;;;5074320;28;20031;-78
2021/11/02 02:48:46;;;;;;;2.35;2.15;;;26.80;90.40;;;;;;5074318;28;20023;-78
2021/11/02 02:51:15;;;;;;;2.20;2.00;;;26.80;90.70;;;;;;5074234;28;20178;-77
2021/11/02 02:53:44;;;;;;;2.72;2.10;;;26.90;91.00;;;;;;5074267;28;20016;-79
2021/11/02 02:56:13;;;;;;;2.20;2.10;;;26.60;90.90;;;;;;5074380;28;20124;-78
2021/11/02 02:58:49;;;;;;;2.30;2.10;;;26.50;90.30;;;;;;5074007;28;20057;-78
2021/11/02 03:01:18;;;;;;;2.70;2.08;;;26.20;90.20;;;;;;5074172;28;20465;-78
2021/11/02 03:04:03;;;;;;;2.23;2.10;;;26.00;90.80;;;;;;5072728;28;20035;-79
2021/11/02 03:06:40;;;;;;;3.33;2.50;;;26.30;90.50;;;;;;5074204;28;20249;-79
2021/11/02 03:09:08;;;;;;;3.90;3.00;;;26.20;90.90;;;;;;5074080;28;20032;-79
2021/11/02 03:11:36;;;;;;;3.15;2.15;;;26.80;90.90;;;;;;5074180;28;20028;-79
2021/11/02 03:14:11;;;;;;;2.83;2.10;;;26.80;90.70;;;;;;5074621;28;20021;-79
2021/11/02 03:19:56;;;;;;;3.17;1.92;;;26.80;91.70;;;;;;5073946;28;20076;-79
2021/11/02 03:50:45;;;;;;;2.80;2.60;;;26.40;93.90;;;;;;5074086;28;20109;-80
2021/11/02 04:01:42;;;;;;;3.95;2.70;;;26.20;94.10;;;;;;5054282;28;20029;-80
2021/11/02 04:27:05;;;;;;;3.25;2.95;;;25.90;94.60;;;;;;5077368;28;20052;-81
2021/11/02 05:48:35;;;;;;;3.15;2.50;;;25.50;96.10;;;;;;5075719;28;20092;-79
2021/11/02 05:51:30;;;;;;;3.65;2.67;;;25.10;96.30;;;;;;5075442;28;20051;-79
2021/11/02 06:04:47;;;;;;;4.70;2.50;;;25.40;95.60;;;;;;5075543;28;20020;-75
2021/11/02 06:07:29;;;;;;;5.75;2.58;;;24.80;96.30;;;;;;5073959;28;20378;-76
2021/11/02 06:30:05;;;;;;;5.22;2.50;;;23.50;99.60;;;;;;5074391;28;20024;-76
2021/11/02 06:32:39;;;;;;;4.88;2.78;;;23.50;99.90;;;;;;5073323;28;20020;-76
2021/11/02 06:35:15;;;;;;;6.95;2.67;;;23.20;99.90;;;;;;5073647;28;20017;-75
2021/11/02 06:49:34;;;;;;;5.97;3.40;;;23.00;99.90;;;;;;5052431;28;20072;-76
2021/11/02 06:58:04;;;;;;;4.53;3.58;;;22.50;99.90;;;;;;5074555;28;20111;-75
2021/11/02 07:00:54;;;;;;;4.20;3.60;;;22.30;99.90;;;;;;5072904;28;20103;-75
2021/11/02 07:18:18;;;;;;;4.05;3.70;;;22.00;99.90;;;;;;5074846;28;20098;-77
2021/11/02 07:20:36;;;;;;;6.43;3.75;;;21.90;99.90;;;;;;5071553;28;20090;-79
2021/11/02 07:25:50;;;;;;;4.10;3.65;;;21.90;99.90;;;;;;5075021;28;20473;-78
2021/11/02 07:28:56;;;;;;;5.40;3.40;;;21.80;99.90;;;;;;5074847;28;20024;-78
2021/11/02 08:47:43;;;;;;;9.23;7.57;;;19.70;99.90;;;;;;5078522;28;20370;-81
2021/11/02 08:50:12;;;;;;;7.97;7.38;;;19.60;99.90;;;;;;5076579;28;20028;-79
2021/11/02 08:52:49;;;;;;;8.88;7.05;;;19.60;99.90;;;;;;5074339;28;20036;-80
2021/11/02 08:55:17;;;;;;;7.50;7.00;;;19.50;99.90;;;;;;5076772;28;20384;-83
2021/11/02 08:57:48;;;;;;;7.97;7.22;;;19.50;99.90;;;;;;5077525;28;20096;-80
2021/11/02 09:00:17;;;;;;;9.27;7.72;;;19.50;99.90;;;;;;5075146;28;20457;-80
2021/11/02 09:02:50;;;;;;;9.00;8.15;;;19.40;99.90;;;;;;5073928;28;20031;-76
2021/11/02 09:05:26;;;;;;;9.80;9.00;;;19.50;99.90;;;;;;5073580;28;20406;-74
2021/11/02 09:07:58;;;;;;;9.43;8.80;;;19.50;99.90;;;;;;5073673;28;20020;-75
2021/11/02 09:10:27;;;;;;;9.57;8.77;;;19.50;99.90;;;;;;5076443;28;20035;-74
2021/11/02 09:12:58;;;;;;;9.50;8.70;;;19.50;99.90;;;;;;5077736;28;20070;-77
2021/11/02 09:15:26;;;;;;;;;;;19.50;99.90;;;;;;5076317;28;20497;-76
2021/11/02 09:17:56;;;;;;;10.00;9.10;;;19.40;99.90;;;;;;5076748;28;20357;-75
2021/11/02 09:20:25;;;;;;;9.40;8.57;;;19.40;99.90;;;;;;5077803;28;20066;-77
2021/11/02 09:22:53;;;;;;;9.27;8.50;;;19.40;99.90;;;;;;5076784;28;20033;-76
2021/11/02 09:25:22;;;;;;;11.10;8.38;;;19.40;99.90;;;;;;5078107;28;20020;-78
2021/11/02 09:27:50;;;;;;;8.75;8.02;;;19.40;99.90;;;;;;5077696;28;20485;-76
2021/11/02 09:30:20;;;;;;;8.77;7.90;;;19.30;99.90;;;;;;5077160;28;20028;-77
2021/11/02 09:32:50;;;;;;;8.30;7.68;;;19.30;99.90;;;;;;5075777;28;20025;-74
2021/11/02 09:35:21;;;;;;;9.77;7.40;;;19.30;99.90;;;;;;5076136;28;20025;-77
2021/11/02 09:38:24;;;;;;;7.40;6.72;;;19.30;99.90;;;;;;5077086;28;20024;-76
2021/11/02 09:41:14;;;;;;;8.75;7.20;;;19.20;99.90;;;;;;5077390;28;20508;-77
2021/11/02 09:44:31;;;;;;;7.60;6.95;;;19.40;99.90;;;;;;5075624;28;20047;-75
2021/11/02 09:47:41;;;;;;;7.70;7.00;;;19.40;99.90;;;;;;5076898;28;20024;-74
2021/11/02 09:50:21;;;;;;;8.02;7.38;;;19.40;99.90;;;;;;5077061;28;20409;-74
2021/11/02 09:53:20;;;;;;;8.10;7.30;;;19.40;99.90;;;;;;5077365;28;20024;-75
2021/11/02 09:56:09;;;;;;;8.65;7.55;;;19.30;99.90;;;;;;5075883;28;20024;-76
2021/11/02 09:59:13;;;;;;;10.38;7.82;;;19.30;99.90;;;;;;5075758;28;20021;-77
2021/11/02 10:01:49;;;;;;;7.85;6.95;;;19.30;99.90;;;;;;5074722;28;20370;-76
2021/11/02 10:04:36;;;;;;;7.68;6.43;;;19.30;99.90;;;;;;5075483;28;20481;-76
2021/11/02 10:07:29;;;;;;;7.25;6.55;;;19.30;99.90;;;;;;5075010;28;20032;-77
2021/11/02 10:10:10;;;;;;;7.40;6.80;;;19.30;99.90;;;;;;5074669;28;20465;-74
2021/11/02 10:12:59;;;;;;;11.85;7.70;;;19.30;99.90;;;;;;5074772;28;20108;-74
2021/11/02 10:15:57;;;;;;;10.82;7.60;;;19.20;99.90;;;;;;5076257;28;20085;-74
2021/11/02 10:19:10;;;;;;;8.27;7.22;;;19.30;99.90;;;;;;5072282;28;20123;-75
2021/11/02 10:21:57;;;;;;;7.32;6.97;;;19.20;99.90;;;;;;5074631;28;20031;-74
2021/11/02 10:25:13;;;;;;;8.02;7.40;;;19.20;99.90;;;;;;5054175;28;20483;-74
2021/11/02 10:28:33;;;;;;;9.07;8.00;;;19.30;99.90;;;;;;5048761;28;20481;-74
2021/11/02 10:31:15;;;;;;;7.60;7.03;;;19.30;99.90;;;;;;5075591;28;20021;-75
2021/11/02 10:33:58;;;;;;;8.00;6.90;;;19.20;99.90;;;;;;5074390;28;20115;-74
2021/11/02 10:36:43;;;;;;;6.90;6.40;;;19.20;99.90;;;;;;5075394;28;20052;-74
2021/11/02 10:39:30;;;;;;;7.10;6.40;;;19.10;99.90;;;;;;5075614;28;20020;-74
2021/11/02 10:42:03;;;;;;;7.15;6.50;;;19.20;99.90;;;;;;5057447;28;20032;-75
2021/11/02 10:44:39;;;;;;;6.80;6.40;;;19.10;99.90;;;;;;5075609;28;20029;-74
2021/11/02 10:47:19;;;;;;;6.88;6.28;;;19.20;99.90;;;;;;5073837;28;20036;-74
2021/11/02 10:49:58;;;;;;;7.97;7.18;;;19.10;99.90;;;;;;5075300;28;20016;-75
2021/11/02 10:52:32;;;;;;;8.18;7.35;;;19.20;99.90;;;;;;5075341;28;20051;-77
2021/11/02 10:55:32;;;;;;;15.20;7.88;;;19.10;99.90;;;;;;5074300;28;20100;-74
2021/11/02 10:58:17;;;;;;;;;;;19.10;99.90;;;;;;5075500;28;20017;-75
2021/11/02 11:00:48;;;;;;;7.72;6.65;;;19.10;99.90;;;;;;5074935;28;19927;-74
2021/11/02 11:03:18;;;;;;;7.93;7.22;;;19.10;99.90;;;;;;5075509;28;20017;-74
2021/11/02 11:05:57;;;;;;;9.27;6.90;;;19.10;99.90;;;;;;5074852;28;20021;-75
2021/11/02 11:08:28;;;;;;;7.97;6.80;;;19.10;99.90;;;;;;5074823;28;20027;-74
2021/11/02 11:10:58;;;;;;;7.50;6.90;;;19.20;99.90;;;;;;5057268;28;20123;-74
2021/11/02 11:13:30;;;;;;;8.43;6.93;;;19.30;99.90;;;;;;5073398;28;20020;-74
2021/11/02 11:16:10;;;;;;;8.40;6.53;;;19.30;99.90;;;;;;5073715;28;20016;-74
2021/11/02 11:18:45;;;;;;;9.15;6.63;;;19.20;99.90;;;;;;5073746;28;20072;-75
2021/11/02 11:21:16;;;;;;;7.93;7.22;;;19.20;99.90;;;;;;5074903;28;20366;-75
2021/11/02 11:23:46;;;;;;;7.78;7.05;;;19.20;99.90;;;;;;5074546;28;20074;-75
2021/11/02 11:26:13;;;;;;;7.90;7.20;;;19.10;99.90;;;;;;5074491;28;20037;-74
2021/11/02 11:28:42;;;;;;;9.55;7.90;;;19.20;99.90;;;;;;5073354;28;20074;-75
2021/11/02 11:31:10;;;;;;;8.25;7.53;;;19.10;99.90;;;;;;5074356;28;20032;-74
2021/11/02 11:33:40;;;;;;;7.68;6.85;;;19.10;99.90;;;;;;5074483;28;20013;-75
2021/11/02 11:36:08;;;;;;;9.38;6.88;;;19.10;99.90;;;;;;5074577;28;20020;-75
2021/11/02 11:38:42;;;;;;;6.82;6.32;;;19.10;99.90;;;;;;5073999;28;20020;-75
2021/11/02 11:41:13;;;;;;;7.70;7.10;;;19.10;99.90;;;;;;5073231;28;20114;-75
2021/11/02 11:43:42;;;;;;;8.50;7.55;;;19.10;99.90;;;;;;5058360;28;20115;-75
2021/11/02 11:46:12;;;;;;;11.65;8.20;;;19.10;99.90;;;;;;5072493;28;20115;-74
2021/11/02 11:48:46;;;;;;;10.05;8.20;;;19.10;99.90;;;;;;5074013;28;20418;-75
2021/11/02 11:51:29;;;;;;;11.98;8.50;;;19.10;99.90;;;;;;5073793;28;20402;-74
2021/11/02 11:54:02;;;;;;;11.75;9.00;;;19.10;99.90;;;;;;5074555;28;20028;-74
2021/11/02 11:56:37;;;;;;;8.90;8.10;;;19.00;99.90;;;;;;5074570;28;20103;-74
2021/11/02 11:59:15;;;;;;;11.57;8.70;;;19.00;99.90;;;;;;5072687;28;20025;-74
2021/11/02 12:01:57;;;;;;;9.50;8.60;;;18.90;99.90;;;;;;5074073;28;20035;-74
2021/11/02 12:04:31;;;;;;;10.18;8.07;;;18.90;99.90;;;;;;5074502;28;20017;-75
2021/11/02 12:07:38;;;;;;;10.00;8.52;;;18.90;99.90;;;;;;5072714;28;20024;-73
2021/11/02 12:10:10;;;;;;;11.25;8.55;;;18.90;99.90;;;;;;5072856;28;20036;-74
2021/11/02 12:12:43;;;;;;;9.52;8.73;;;18.80;99.90;;;;;;5074225;28;20045;-73
2021/11/02 12:15:15;;;;;;;8.68;7.93;;;18.80;99.90;;;;;;5073864;28;20020;-74
2021/11/02 12:17:50;;;;;;;8.98;8.20;;;18.80;99.90;;;;;;5073844;28;20086;-74
2021/11/02 12:20:19;;;;;;;8.55;7.65;;;18.70;99.90;;;;;;5072851;28;20112;-74
2021/11/02 12:22:52;;;;;;;8.38;7.60;;;18.70;99.90;;;;;;5072343;28;20090;-73
2021/11/02 12:25:28;;;;;;;9.90;8.35;;;18.60;99.90;;;;;;5072599;28;20024;-74
2021/11/02 12:28:02;;;;;;;10.05;7.90;;;18.60;99.90;;;;;;5074076;28;20473;-74
2021/11/02 12:30:29;;;;;;;8.57;7.57;;;18.60;99.90;;;;;;5073487;28;20060;-73
2021/11/02 12:32:59;;;;;;;8.68;7.97;;;18.50;99.90;;;;;;5073970;28;20074;-74
2021/11/02 12:36:03;;;;;;;10.30;8.67;;;18.60;99.90;;;;;;5072545;28;20016;-74
2021/11/02 12:38:42;;;;;;;9.30;8.30;;;18.60;99.90;;;;;;5031587;28;20366;-74
2021/11/02 12:41:23;;;;;;;9.02;8.10;;;18.50;99.90;;;;;;5072235;28;20032;-73
2021/11/02 12:44:09;;;;;;;;;;;18.50;99.90;;;;;;5073479;28;20446;-74
2021/11/02 12:46:41;;;;;;;8.98;8.38;;;18.40;99.90;;;;;;5076255;28;19904;-73
2021/11/02 12:49:09;;;;;;;9.43;8.18;;;18.40;99.90;;;;;;5077550;28;20020;-74
2021/11/02 12:51:44;;;;;;;9.75;8.90;;;18.40;99.90;;;;;;5077280;28;20063;-73
2021/11/02 12:54:15;;;;;;;11.20;8.60;;;18.30;99.90;;;;;;5076338;28;20020;-73
2021/11/02 12:56:57;;;;;;;9.52;8.43;;;18.40;99.90;;;;;;5076052;28;20025;-73
2021/11/02 12:59:30;;;;;;;10.10;8.85;;;18.30;99.90;;;;;;5077127;28;20040;-74
2021/11/02 13:02:00;;;;;;;10.18;9.10;;;18.30;99.90;;;;;;5075772;28;20025;-74
2021/11/02 13:04:35;;;;;;;9.87;8.87;;;18.20;99.90;;;;;;5076887;28;20031;-74
2021/11/02 13:07:10;;;;;;;10.73;8.80;;;18.20;99.90;;;;;;5077134;28;20493;-75
2021/11/02 13:09:39;;;;;;;10.00;8.98;;;18.20;99.90;;;;;;5075929;28;20472;-73
2021/11/02 13:12:09;;;;;;;12.70;9.10;;;18.20;99.90;;;;;;5076906;28;20155;-74
2021/11/02 13:14:49;;;;;;;10.93;9.20;;;18.10;99.90;;;;;;5076931;28;20146;-74
2021/11/02 13:17:19;;;;;;;10.50;8.80;;;18.10;99.90;;;;;;5076742;28;20106;-74
2021/11/02 13:19:53;;;;;;;9.37;8.63;;;18.10;99.90;;;;;;5076793;28;20469;-74
2021/11/02 13:22:23;;;;;;;12.60;9.27;;;18.20;99.90;;;;;;5075490;28;20348;-74
2021/11/02 13:25:00;;;;;;;12.05;9.15;;;18.10;99.90;;;;;;5076864;28;20032;-74
2021/11/02 13:27:34;;;;;;;10.63;9.30;;;18.10;99.90;;;;;;5076483;28;20393;-74
2021/11/02 13:30:39;;;;;;;13.73;9.20;;;18.00;99.90;;;;;;5075623;28;20025;-75
2021/11/02 13:33:19;;;;;;;9.50;8.70;;;18.10;99.90;;;;;;5075257;28;20029;-73
2021/11/02 13:36:07;;;;;;;10.85;9.40;;;18.10;99.90;;;;;;5076051;28;20016;-74
2021/11/02 13:38:42;;;;;;;11.32;9.30;;;18.10;99.90;;;;;;5076597;28;20385;-75
2021/11/02 13:41:23;;;;;;;10.65;9.55;;;18.00;99.90;;;;;;5075137;28;20078;-74
2021/11/02 13:43:56;;;;;;;10.52;9.48;;;18.00;99.90;;;;;;5076537;28;20081;-74
2021/11/02 13:46:26;;;;;;;9.65;8.90;;;18.00;99.90;;;;;;5076208;28;20056;-73
2021/11/02 13:48:54;;;;;;;;;;;18.10;99.90;;;;;;5076784;28;20029;-73
2021/11/02 13:51:23;;;;;;;9.60;8.70;;;18.10;99.90;;;;;;5076127;28;20380;-74
2021/11/02 13:53:51;;;;;;;11.18;8.82;;;18.10;99.90;;;;;;5076363;28;20095;-73
2021/11/02 13:56:21;;;;;;;10.07;9.20;;;18.20;99.90;;;;;;5073599;28;20036;-74
2021/11/02 13:58:50;;;;;;;10.32;9.48;;;18.10;99.90;;;;;;5073349;28;20070;-74
2021/11/02 14:01:20;;;;;;;9.65;8.85;;;18.20;99.90;;;;;;5074252;28;20040;-74
2021/11/02 14:04:04;;;;;;;9.82;9.00;;;18.20;99.90;;;;;;5076421;28;20405;-73
2021/11/02 14:07:02;;;;;;;9.70;8.82;;;18.60;99.90;;;;;;5074764;28;20382;-74
2021/11/02 14:09:36;;;;;;;9.48;8.57;;;18.40;99.90;;;;;;5074452;28;20026;-74
2021/11/02 14:12:25;;;;;;;9.70;8.90;;;18.30;99.90;;;;;;5076165;28;20469;-74
2021/11/02 14:15:12;;;;;;;9.55;8.82;;;18.40;99.90;;;;;;5075829;28;20024;-73
2021/11/02 14:17:52;;;;;;;9.55;8.63;;;18.40;99.90;;;;;;5076073;28;20371;-73
2021/11/02 14:20:41;;;;;;;9.82;9.10;;;18.30;99.90;;;;;;5074535;28;20488;-75
2021/11/02 14:23:21;;;;;;;10.82;9.40;;;18.30;99.90;;;;;;5074521;28;20029;-74
2021/11/02 14:25:48;;;;;;;9.73;9.10;;;18.30;99.90;;;;;;5074445;28;20021;-74
2021/11/02 14:28:32;;;;;;;10.57;9.48;;;18.10;99.90;;;;;;5074210;28;20028;-74
2021/11/02 14:30:59;;;;;;;10.00;9.13;;;18.10;99.90;;;;;;5074097;28;20020;-75
2021/11/02 14:33:46;;;;;;;10.95;10.00;;;17.80;99.90;;;;;;5074241;28;20024;-75
2021/11/02 14:36:15;;;;;;;12.02;9.52;;;18.10;99.90;;;;;;5075214;28;20021;-75
2021/11/02 14:38:49;;;;;;;10.25;9.43;;;18.10;99.90;;;;;;5075032;28;20024;-73
2021/11/02 14:41:29;;;;;;;10.15;9.05;;;18.00;99.90;;;;;;5073865;28;20062;-73
2021/11/02 14:44:15;;;;;;;10.02;9.10;;;18.00;99.90;;;;;;5075503;28;20024;-74
2021/11/02 14:47:03;;;;;;;9.50;8.70;;;18.00;99.90;;;;;;5075251;28;20049;-73
2021/11/02 14:49:30;;;;;;;10.18;9.15;;;18.00;99.90;;;;;;5073480;28;20035;-73
2021/11/02 14:52:06;;;;;;;9.50;8.70;;;18.00;99.90;;;;;;5074954;28;20028;-74
2021/11/02 14:54:47;;;;;;;9.82;9.02;;;18.00;99.90;;;;;;5074985;28;20523;-74
2021/11/02 14:57:20;;;;;;;9.63;8.85;;;17.90;99.90;;;;;;5075337;28;20420;-74
2021/11/02 15:00:14;;;;;;;9.25;8.60;;;17.90;99.90;;;;;;5072973;28;20017;-74
2021/11/02 15:02:43;;;;;;;11.82;9.63;;;17.90;99.90;;;;;;5072209;28;20533;-74
2021/11/02 15:05:18;;;;;;;10.48;9.63;;;17.90;99.90;;;;;;5074700;28;20077;-74
2021/11/02 15:07:48;;;;;;;11.48;10.18;;;17.90;99.90;;;;;;5074593;28;20036;-74
2021/11/02 15:10:19;;;;;;;12.57;9.70;;;18.00;99.90;;;;;;5072950;28;20025;-74
2021/11/02 15:12:49;;;;;;;9.95;9.32;;;18.00;99.90;;;;;;5074176;28;20099;-74
2021/11/02 15:15:16;;;;;;;10.57;9.52;;;18.00;99.90;;;;;;5073974;28;20032;-74
2021/11/02 15:17:46;;;;;;;10.75;9.80;;;18.00;99.90;;;;;;5074398;28;20401;-74
2021/11/02 15:20:18;;;;;;;10.75;9.63;;;18.00;99.90;;;;;;5072803;28;20385;-74
2021/11/02 15:22:47;;;;;;;9.52;8.82;;;18.00;99.90;;;;;;5074601;28;20074;-74
2021/11/02 15:25:17;;;;;;;9.15;8.48;;;18.00;99.90;;;;;;5072985;28;20029;-74
2021/11/02 15:27:44;;;;;;;9.32;8.40;;;18.00;99.90;;;;;;5074866;28;20028;-74
2021/11/02 15:30:14;;;;;;;9.15;8.45;;;18.00;99.90;;;;;;5074036;28;20035;-74
2021/11/02 15:32:47;;;;;;;10.13;9.13;;;18.00;99.90;;;;;;5073226;28;20027;-74
2021/11/02 15:35:18;;;;;;;9.90;8.90;;;18.00;99.90;;;;;;5074830;28;20382;-74
2021/11/02 15:37:48;;;;;;;10.88;9.18;;;17.90;99.90;;;;;;5073325;28;20025;-74
2021/11/02 15:40:18;;;;;;;10.38;8.90;;;17.90;99.90;;;;;;5074217;28;20473;-74
2021/11/02 15:42:54;;;;;;;9.60;8.70;;;17.90;99.90;;;;;;5073138;28;20031;-73
2021/11/02 15:45:38;;;;;;;9.75;8.40;;;17.80;99.90;;;;;;5072653;28;20062;-74
2021/11/02 15:48:18;;;;;;;10.00;9.13;;;17.90;99.90;;;;;;5073340;28;20115;-74
2021/11/02 15:50:56;;;;;;;9.63;8.73;;;17.90;99.90;;;;;;5073708;28;20024;-74
2021/11/02 15:53:26;;;;;;;9.52;8.82;;;17.90;99.90;;;;;;5073618;28;20024;-73
2021/11/02 15:56:01;;;;;;;9.83;9.13;;;17.90;99.90;;;;;;5072756;28;20027;-74
2021/11/02 15:58:30;;;;;;;10.43;9.35;;;18.00;99.90;;;;;;5073074;28;20029;-72
2021/11/02 16:00:57;;;;;;;10.57;9.23;;;18.00;99.90;;;;;;5074101;28;20113;-74
2021/11/02 16:03:35;;;;;;;10.00;9.10;;;18.10;99.90;;;;;;5072749;28;20051;-73
2021/11/02 16:06:17;;;;;;;9.90;9.00;;;18.10;99.90;;;;;;5073259;28;20029;-73
2021/11/02 16:08:57;;;;;;;9.55;8.70;;;18.10;99.90;;;;;;5072295;28;20029;-74
2021/11/02 16:11:25;;;;;;;9.98;9.18;;;18.10;99.90;;;;;;5073370;28;20031;-74
2021/11/02 16:13:53;;;;;;;9.77;8.77;;;18.10;99.90;;;;;;5073483;28;20029;-74
2021/11/02 16:16:20;;;;;;;9.68;8.77;;;18.00;99.90;;;;;;5073940;28;20020;-74
2021/11/02 16:18:53;;;;;;;9.45;8.75;;;18.00;99.90;;;;;;5074366;28;20128;-74
2021/11/02 16:21:23;;;;;;;9.60;8.75;;;17.90;99.90;;;;;;5076506;28;20115;-75
2021/11/02 16:23:51;;;;;;;9.10;8.30;;;17.80;99.90;;;;;;5077832;28;20020;-73
2021/11/02 16:26:29;;;;;;;9.13;8.43;;;17.80;99.90;;;;;;5076563;28;20532;-74
2021/11/02 16:29:14;;;;;;;9.45;8.65;;;17.70;99.90;;;;;;5076647;28;20063;-74
2021/11/02 16:31:42;;;;;;;9.93;8.90;;;17.60;99.90;;;;;;5076313;28;20025;-74
2021/11/02 16:34:18;;;;;;;9.93;9.02;;;17.60;99.90;;;;;;5076080;28;20055;-75
2021/11/02 16:36:45;;;;;;;11.13;9.70;;;17.50;99.90;;;;;;5077486;28;20362;-74
2021/11/02 16:39:16;;;;;;;10.50;9.60;;;17.50;99.90;;;;;;5076430;28;20028;-75
2021/11/02 16:41:44;;;;;;;;;;;17.50;99.90;;;;;;5076458;28;20024;-73
2021/11/02 16:44:16;;;;;;;10.23;9.52;;;17.50;99.90;;;;;;5075980;28;19943;-74
2021/11/02 16:46:47;;;;;;;11.25;9.90;;;17.40;99.90;;;;;;5077452;28;20021;-74
2021/11/02 16:49:28;;;;;;;10.07;9.48;;;17.30;99.90;;;;;;5077379;28;20024;-73
2021/11/02 16:51:55;;;;;;;10.25;9.15;;;17.30;99.90;;;;;;5077146;28;20031;-73
2021/11/02 16:54:29;;;;;;;9.90;9.10;;;17.30;99.90;;;;;;5076137;28;20119;-73
2021/11/02 16:57:16;;;;;;;9.65;8.75;;;17.20;99.90;;;;;;5076898;28;20024;-73
2021/11/02 17:00:02;;;;;;;10.35;9.52;;;17.20;99.90;;;;;;5075987;28;20017;-73
2021/11/02 17:02:36;;;;;;;9.93;8.98;;;17.20;99.90;;;;;;5077062;28;20039;-73
2021/11/02 17:05:23;;;;;;;10.63;9.40;;;17.20;99.90;;;;;;5075837;28;20028;-73
2021/11/02 17:08:02;;;;;;;10.50;9.60;;;17.20;99.90;;;;;;5075901;28;20082;-74
2021/11/02 17:10:37;;;;;;;10.18;9.38;;;17.20;99.90;;;;;;5076792;28;20033;-73
2021/11/02 17:13:25;;;;;;;10.05;9.10;;;17.10;99.90;;;;;;5075470;28;20036;-73
2021/11/02 17:16:02;;;;;;;10.75;9.65;;;17.10;99.90;;;;;;5076681;28;20032;-73
2021/11/02 17:18:58;;;;;;;11.30;10.23;;;17.10;99.90;;;;;;5076366;28;20045;-74
2021/11/02 17:21:31;;;;;;;10.73;9.80;;;17.10;99.90;;;;;;5075726;28;20031;-74
2021/11/02 17:23:59;;;;;;;10.77;9.90;;;17.10;99.90;;;;;;5075704;28;20477;-73
2021/11/02 17:26:29;;;;;;;10.48;9.70;;;17.20;99.90;;;;;;5075550;28;20028;-73
2021/11/02 17:28:57;;;;;;;11.27;10.23;;;17.10;99.90;;;;;;5075273;28;20033;-73
2021/11/02 17:31:27;;;;;;;11.15;10.23;;;17.10;99.90;;;;;;5076336;28;20040;-73
2021/11/02 17:33:58;;;;;;;10.40;9.68;;;17.10;99.90;;;;;;5076554;28;20074;-73
2021/11/02 17:36:25;;;;;;;10.82;9.85;;;17.20;99.90;;;;;;5076696;28;20107;-73
2021/11/02 17:38:54;;;;;;;11.25;9.85;;;17.30;99.90;;;;;;5075484;28;20029;-73
2021/11/02 17:41:22;;;;;;;11.35;10.20;;;17.30;99.90;;;;;;5076224;28;20020;-73
2021/11/02 17:43:54;;;;;;;12.10;10.32;;;17.40;99.90;;;;;;5076508;28;20109;-74
2021/11/02 17:46:22;;;;;;;11.00;9.88;;;17.40;99.90;;;;;;5075321;28;20031;-73
2021/11/02 17:48:50;;;;;;;11.30;10.15;;;17.40;99.90;;;;;;5074662;28;20052;-73
2021/11/02 17:51:20;;;;;;;10.82;9.80;;;17.50;99.90;;;;;;5076131;28;20021;-73
2021/11/02 17:53:47;;;;;;;10.27;9.40;;;17.50;99.90;;;;;;5076328;28;20023;-74
2021/11/02 17:56:15;;;;;;;10.80;9.82;;;17.50;99.90;;;;;;5076202;28;20021;-73
2021/11/02 17:58:46;;;;;;;10.00;8.98;;;17.50;99.90;;;;;;5074741;28;20098;-73
2021/11/02 18:01:14;;;;;;;10.30;9.40;;;17.40;99.90;;;;;;5076558;28;20028;-73
2021/11/02 18:03:45;;;;;;;10.55;9.52;;;17.40;99.90;;;;;;5075929;28;20445;-74
2021/11/02 18:06:14;;;;;;;10.38;9.55;;;17.50;99.90;;;;;;5075352;28;20082;-74
2021/11/02 18:08:47;;;;;;;10.53;9.60;;;17.50;99.90;;;;;;5075450;28;20025;-75
2021/11/02 18:11:16;;;;;;;10.65;9.85;;;17.60;99.90;;;;;;5074031;28;20309;-73
2021/11/02 18:13:44;;;;;;;10.65;9.73;;;17.60;99.90;;;;;;5075739;28;20044;-74